createdAt,value
2023-04-06T00:00:43.674Z,4.10
2023-04-06T00:03:10.433Z,4.00
2023-04-06T00:05:37.246Z,3.90
2023-04-06T00:08:04.049Z,3.90
2023-04-06T00:10:30.948Z,3.90
2023-04-06T00:12:58.273Z,3.90
2023-04-06T00:15:25.261Z,3.80
2023-04-06T00:17:52.204Z,3.80
2023-04-06T00:20:19.040Z,3.80
2023-04-06T00:22:46.671Z,3.70
2023-04-06T00:25:13.379Z,3.60
2023-04-06T00:27:40.367Z,3.70
2023-04-06T00:30:07.837Z,3.50
2023-04-06T00:32:35.772Z,3.40
2023-04-06T00:35:06.350Z,3.50
2023-04-06T00:37:33.243Z,3.40
2023-04-06T00:39:59.936Z,3.50
2023-04-06T00:42:27.815Z,3.40
2023-04-06T00:44:58.819Z,3.40
2023-04-06T00:47:29.074Z,3.40
2023-04-06T00:49:57.068Z,3.50
2023-04-06T00:52:23.978Z,3.70
2023-04-06T00:54:51.591Z,3.60
2023-04-06T00:57:20.783Z,3.50
2023-04-06T00:59:53.659Z,3.50
2023-04-06T01:02:20.808Z,3.40
2023-04-06T01:04:50.362Z,3.40
2023-04-06T01:07:25.735Z,3.40
2023-04-06T01:10:26.351Z,3.50
2023-04-06T01:12:58.088Z,3.50
2023-04-06T01:15:45.905Z,3.50
2023-04-06T01:18:16.570Z,3.40
2023-04-06T01:20:51.527Z,3.40
2023-04-06T01:23:19.090Z,3.30
2023-04-06T01:25:47.454Z,3.30
2023-04-06T01:28:14.368Z,3.20
2023-04-06T01:31:05.675Z,3.00
2023-04-06T01:33:44.563Z,2.90
2023-04-06T01:36:15.501Z,2.90
2023-04-06T01:38:43.945Z,2.90
2023-04-06T01:41:11.555Z,3.10
2023-04-06T01:43:48.761Z,3.10
2023-04-06T01:46:16.317Z,3.20
2023-04-06T01:48:45.093Z,3.20
2023-04-06T01:51:18.410Z,3.10
2023-04-06T01:53:53.527Z,3.10
2023-04-06T01:56:23.921Z,3.00
2023-04-06T01:58:58.960Z,3.10
2023-04-06T02:01:29.091Z,2.90
2023-04-06T02:03:57.856Z,3.00
2023-04-06T02:06:24.670Z,3.10
2023-04-06T02:08:51.410Z,3.10
2023-04-06T02:11:18.754Z,3.20
2023-04-06T02:13:49.436Z,3.10
2023-04-06T02:16:17.154Z,3.00
2023-04-06T02:18:46.147Z,3.00
2023-04-06T02:21:13.580Z,3.00
2023-04-06T02:23:40.406Z,2.90
2023-04-06T02:26:07.166Z,2.80
2023-04-06T02:28:33.858Z,2.80
2023-04-06T02:31:01.793Z,2.90
2023-04-06T02:33:28.597Z,3.20
2023-04-06T02:35:55.382Z,3.40
2023-04-06T02:38:23.268Z,3.50
2023-04-06T02:40:52.335Z,3.60
2023-04-06T02:43:24.799Z,3.70
2023-04-06T02:45:56.374Z,3.70
2023-04-06T02:48:25.218Z,3.80
2023-04-06T02:50:53.165Z,3.90
2023-04-06T02:53:19.906Z,3.80
2023-04-06T02:55:46.630Z,3.70
2023-04-06T02:58:13.397Z,3.40
2023-04-06T03:00:47.026Z,3.30
2023-04-06T03:03:13.891Z,3.30
2023-04-06T03:05:41.837Z,3.10
2023-04-06T03:08:09.043Z,3.00
2023-04-06T03:10:41.680Z,2.90
2023-04-06T03:13:08.913Z,2.90
2023-04-06T03:15:48.754Z,2.90
2023-04-06T03:18:22.343Z,3.00
2023-04-06T03:20:50.332Z,3.00
2023-04-06T03:23:18.544Z,2.90
2023-04-06T03:25:46.350Z,2.80
2023-04-06T03:28:17.047Z,2.70
2023-04-06T03:30:54.405Z,2.50
2023-04-06T03:33:37.255Z,2.50
2023-04-06T03:36:04.351Z,2.60
2023-04-06T03:38:33.962Z,2.60
2023-04-06T03:41:03.503Z,2.60
2023-04-06T03:43:30.243Z,2.50
2023-04-06T03:45:56.984Z,2.60
2023-04-06T03:48:23.881Z,2.80
2023-04-06T03:50:50.733Z,2.90
2023-04-06T03:53:17.903Z,3.10
2023-04-06T03:55:44.697Z,3.30
2023-04-06T03:58:11.454Z,3.40
2023-04-06T04:00:38.371Z,3.30
2023-04-06T04:03:05.912Z,3.20
2023-04-06T04:05:32.613Z,3.10
2023-04-06T04:08:00.250Z,2.90
2023-04-06T04:10:27.547Z,2.90
2023-04-06T04:12:54.243Z,3.00
2023-04-06T04:15:21.180Z,3.10
2023-04-06T04:17:50.195Z,3.30
2023-04-06T04:20:17.519Z,3.30
2023-04-06T04:22:44.688Z,3.40
2023-04-06T04:25:11.569Z,3.40
2023-04-06T04:27:44.208Z,3.30
2023-04-06T04:30:11.339Z,3.40
2023-04-06T04:32:38.103Z,3.60
2023-04-06T04:35:07.449Z,3.50
2023-04-06T04:37:37.549Z,3.30
2023-04-06T04:40:05.246Z,3.30
2023-04-06T04:42:41.127Z,3.20
2023-04-06T04:45:12.564Z,3.10
2023-04-06T04:47:40.206Z,3.20
2023-04-06T04:50:08.407Z,3.20
2023-04-06T04:52:38.543Z,3.20
2023-04-06T04:55:18.502Z,3.20
2023-04-06T04:57:47.920Z,3.20
2023-04-06T05:00:15.952Z,3.30
2023-04-06T05:02:44.674Z,3.30
2023-04-06T05:05:18.944Z,3.50
2023-04-06T05:07:46.467Z,3.60
2023-04-06T05:10:22.790Z,3.70
2023-04-06T05:12:57.224Z,3.70
2023-04-06T05:15:23.981Z,3.60
2023-04-06T05:17:55.124Z,3.60
2023-04-06T05:20:28.919Z,3.80
2023-04-06T05:22:55.762Z,3.90
2023-04-06T05:25:22.472Z,4.00
2023-04-06T05:27:52.429Z,4.00
2023-04-06T05:30:37.078Z,4.00
2023-04-06T05:33:04.252Z,4.00
2023-04-06T05:35:42.418Z,3.90
2023-04-06T05:38:13.309Z,3.80
2023-04-06T05:40:42.231Z,3.80
2023-04-06T05:43:13.784Z,3.90
2023-04-06T05:45:46.496Z,3.80
2023-04-06T05:48:13.434Z,3.80
2023-04-06T05:50:41.538Z,4.00
2023-04-06T05:53:10.173Z,4.00
2023-04-06T05:55:41.967Z,4.00
2023-04-06T05:58:13.536Z,3.70
2023-04-06T06:00:40.323Z,3.80
2023-04-06T06:03:09.634Z,3.70
2023-04-06T06:05:37.511Z,3.80
2023-04-06T06:08:11.189Z,4.00
2023-04-06T06:10:40.067Z,3.90
2023-04-06T06:13:08.401Z,3.80
2023-04-06T06:15:35.567Z,3.80
2023-04-06T06:18:03.178Z,3.80
2023-04-06T06:20:30.890Z,3.80
2023-04-06T06:23:01.448Z,3.90
2023-04-06T06:25:28.174Z,4.00
2023-04-06T06:27:55.176Z,4.20
2023-04-06T06:30:23.449Z,4.30
2023-04-06T06:32:51.489Z,4.40
2023-04-06T06:35:18.555Z,4.40
2023-04-06T06:37:46.632Z,4.40
2023-04-06T06:40:18.787Z,4.20
2023-04-06T06:42:47.400Z,4.40
2023-04-06T06:45:21.147Z,4.30
2023-04-06T06:47:48.342Z,4.40
2023-04-06T06:50:15.599Z,4.60
2023-04-06T06:52:43.048Z,4.70
2023-04-06T06:55:10.798Z,4.80
2023-04-06T06:57:37.868Z,4.80
2023-04-06T07:00:06.481Z,4.90
2023-04-06T07:02:36.602Z,5.00
2023-04-06T07:05:10.089Z,5.10
2023-04-06T07:07:43.598Z,5.10
2023-04-06T07:10:11.330Z,5.30
2023-04-06T07:12:39.924Z,5.50
2023-04-06T07:15:07.641Z,5.50
2023-04-06T07:17:35.205Z,5.60
2023-04-06T07:20:02.082Z,5.50
2023-04-06T07:22:28.937Z,5.40
2023-04-06T07:24:55.847Z,5.30
2023-04-06T07:27:22.580Z,5.30
2023-04-06T07:29:49.371Z,5.20
2023-04-06T07:32:16.226Z,5.30
2023-04-06T07:34:43.011Z,5.40
2023-04-06T07:37:09.774Z,5.40
2023-04-06T07:39:37.136Z,5.50
2023-04-06T07:42:03.912Z,5.70
2023-04-06T07:44:32.056Z,5.80
2023-04-06T07:46:58.834Z,5.80
2023-04-06T07:49:26.436Z,5.70
2023-04-06T07:51:54.588Z,5.80
2023-04-06T07:54:21.645Z,6.10
2023-04-06T07:56:48.317Z,6.30
2023-04-06T07:59:15.125Z,6.30
2023-04-06T08:01:42.983Z,6.50
2023-04-06T08:04:09.990Z,6.70
2023-04-06T08:06:37.359Z,7.00
2023-04-06T08:09:04.413Z,7.10
2023-04-06T08:11:31.114Z,7.10
2023-04-06T08:13:58.389Z,7.10
2023-04-06T08:16:26.057Z,7.00
2023-04-06T08:18:52.840Z,7.00
2023-04-06T08:21:20.084Z,7.00
2023-04-06T08:23:47.168Z,6.90
2023-04-06T08:26:14.121Z,7.00
2023-04-06T08:28:40.917Z,7.10
2023-04-06T08:31:07.759Z,7.10
2023-04-06T08:33:40.041Z,7.20
2023-04-06T08:36:11.232Z,7.30
2023-04-06T08:38:38.005Z,7.20
2023-04-06T08:41:11.775Z,7.40
2023-04-06T08:43:54.816Z,7.50
2023-04-06T08:46:22.582Z,7.60
2023-04-06T08:48:52.614Z,7.80
2023-04-06T08:51:19.782Z,7.90
2023-04-06T08:53:46.485Z,7.90
2023-04-06T08:56:13.225Z,8.10
2023-04-06T08:58:40.538Z,8.20
2023-04-06T09:01:11.494Z,8.30
2023-04-06T09:03:40.555Z,8.20
2023-04-06T09:06:08.439Z,8.40
2023-04-06T09:08:35.688Z,8.40
2023-04-06T09:11:03.675Z,8.50
2023-04-06T09:13:30.444Z,8.40
2023-04-06T09:16:05.046Z,8.50
2023-04-06T09:18:32.290Z,8.60
2023-04-06T09:21:03.426Z,8.60
2023-04-06T09:23:30.204Z,8.60
2023-04-06T09:26:29.522Z,8.70
2023-04-06T09:28:58.871Z,8.80
2023-04-06T09:31:30.057Z,8.90
2023-04-06T09:33:57.121Z,8.90
2023-04-06T09:36:34.224Z,9.00
2023-04-06T09:39:04.903Z,9.20
2023-04-06T09:41:32.252Z,9.30
2023-04-06T09:44:11.971Z,9.40
2023-04-06T09:46:55.057Z,9.40
2023-04-06T09:49:28.333Z,9.60
2023-04-06T09:52:00.768Z,9.80
2023-04-06T09:54:29.839Z,9.90
2023-04-06T09:57:11.192Z,9.90
2023-04-06T10:00:12.100Z,10.00
2023-04-06T10:02:47.894Z,10.00
2023-04-06T10:05:38.615Z,10.00
2023-04-06T10:08:10.419Z,10.00
2023-04-06T10:10:37.522Z,9.90
2023-04-06T10:13:05.119Z,10.00
2023-04-06T10:15:32.093Z,10.00
2023-04-06T10:17:59.294Z,10.20
2023-04-06T10:20:41.479Z,10.40
2023-04-06T10:23:20.959Z,10.10
2023-04-06T10:25:58.504Z,10.30
2023-04-06T10:28:26.200Z,10.40
2023-04-06T10:31:08.506Z,10.50
2023-04-06T10:33:35.468Z,10.50
2023-04-06T10:36:15.884Z,10.40
2023-04-06T10:38:42.947Z,10.30
2023-04-06T10:41:11.050Z,10.30
2023-04-06T10:43:39.419Z,10.20
2023-04-06T10:46:07.178Z,10.10
2023-04-06T10:48:44.530Z,10.10
2023-04-06T10:51:15.560Z,10.10
2023-04-06T10:53:47.584Z,10.00
2023-04-06T10:56:16.510Z,10.00
2023-04-06T10:58:50.544Z,10.00
2023-04-06T11:01:18.472Z,10.10
2023-04-06T11:03:46.302Z,10.20
2023-04-06T11:06:26.271Z,10.40
2023-04-06T11:08:53.291Z,10.60
2023-04-06T11:11:21.280Z,10.90
2023-04-06T11:13:55.532Z,10.90
2023-04-06T11:16:23.550Z,11.00
2023-04-06T11:19:00.887Z,10.90
2023-04-06T11:21:34.139Z,10.90
2023-04-06T11:24:10.880Z,10.70
2023-04-06T11:26:49.665Z,10.70
2023-04-06T11:29:17.230Z,10.50
2023-04-06T11:31:46.994Z,10.40
2023-04-06T11:34:16.534Z,10.40
2023-04-06T11:36:44.318Z,10.40
2023-04-06T11:39:11.456Z,10.40
2023-04-06T11:41:38.213Z,10.20
2023-04-06T11:44:05.679Z,10.10
2023-04-06T11:46:32.562Z,10.00
2023-04-06T11:49:02.950Z,9.80
2023-04-06T11:51:29.590Z,9.80
2023-04-06T11:53:57.041Z,9.80
2023-04-06T11:56:25.653Z,9.80
2023-04-06T11:58:53.116Z,9.90
2023-04-06T12:01:19.876Z,9.90
2023-04-06T12:03:46.990Z,9.90
2023-04-06T12:06:14.229Z,9.80
2023-04-06T12:08:41.616Z,9.80
2023-04-06T12:11:08.423Z,9.70
2023-04-06T12:13:35.232Z,9.80
2023-04-06T12:16:02.094Z,9.80
2023-04-06T12:18:28.984Z,9.80
2023-04-06T12:20:55.928Z,9.90
2023-04-06T12:23:22.668Z,9.90
2023-04-06T12:25:49.378Z,10.00
2023-04-06T12:28:16.383Z,10.10
2023-04-06T12:30:43.278Z,10.10
2023-04-06T12:33:10.148Z,10.00
2023-04-06T12:35:37.989Z,9.90
2023-04-06T12:38:04.702Z,9.90
2023-04-06T12:40:31.461Z,10.00
2023-04-06T12:42:58.192Z,10.00
2023-04-06T12:45:24.864Z,9.90
2023-04-06T12:47:51.878Z,9.90
2023-04-06T12:50:18.807Z,9.80
2023-04-06T12:52:45.699Z,9.70
2023-04-06T12:55:16.782Z,9.50
2023-04-06T12:57:43.637Z,9.30
2023-04-06T13:00:10.788Z,9.20
2023-04-06T13:02:37.800Z,9.10
2023-04-06T13:05:05.354Z,9.00
2023-04-06T13:07:32.112Z,9.00
2023-04-06T13:09:58.879Z,9.10
2023-04-06T13:12:26.976Z,9.10
2023-04-06T13:14:53.805Z,9.00
2023-04-06T13:17:22.030Z,9.00
2023-04-06T13:19:48.907Z,8.90
2023-04-06T13:22:16.533Z,8.90
2023-04-06T13:24:43.662Z,8.90
2023-04-06T13:27:10.468Z,8.80
2023-04-06T13:29:38.343Z,8.80
2023-04-06T13:32:05.245Z,8.80
2023-04-06T13:34:32.462Z,8.80
2023-04-06T13:36:59.244Z,8.70
2023-04-06T13:39:25.992Z,8.70
2023-04-06T13:41:56.923Z,8.60
2023-04-06T13:44:23.627Z,8.60
2023-04-06T13:46:50.625Z,8.60
2023-04-06T13:49:17.517Z,8.60
2023-04-06T13:51:44.331Z,8.60
2023-04-06T13:54:11.024Z,8.50
2023-04-06T13:56:37.706Z,8.40
2023-04-06T13:59:04.445Z,8.30
2023-04-06T14:01:31.356Z,8.20
2023-04-06T14:03:58.163Z,8.10
2023-04-06T14:06:31.118Z,8.10
2023-04-06T14:08:58.400Z,8.10
2023-04-06T14:11:25.230Z,8.10
2023-04-06T14:13:51.981Z,8.20
2023-04-06T14:16:20.560Z,8.10
2023-04-06T14:18:47.456Z,8.10
2023-04-06T14:21:14.253Z,8.10
2023-04-06T14:23:41.296Z,8.10
2023-04-06T14:26:09.243Z,8.20
2023-04-06T14:28:36.742Z,8.10
2023-04-06T14:31:10.006Z,8.10
2023-04-06T14:33:36.844Z,8.10
2023-04-06T14:36:04.558Z,8.10
2023-04-06T14:38:32.171Z,8.20
2023-04-06T14:40:58.994Z,8.20
2023-04-06T14:43:26.520Z,8.20
2023-04-06T14:45:53.639Z,8.20
2023-04-06T14:48:20.413Z,8.20
2023-04-06T14:50:54.346Z,8.30
2023-04-06T14:53:21.287Z,8.20
2023-04-06T14:55:47.997Z,8.30
2023-04-06T14:58:14.852Z,8.20
2023-04-06T15:00:41.531Z,8.20
2023-04-06T15:03:08.804Z,8.20
2023-04-06T15:05:36.159Z,8.10
2023-04-06T15:10:52.240Z,8.10
2023-04-06T15:13:19.032Z,8.10
2023-04-06T15:15:45.839Z,8.10
2023-04-06T15:18:13.143Z,8.10
2023-04-06T15:20:39.817Z,8.00
2023-04-06T15:23:06.536Z,8.00
2023-04-06T15:25:33.225Z,8.00
2023-04-06T15:28:00.536Z,8.00
2023-04-06T15:30:28.396Z,8.00
2023-04-06T15:33:01.694Z,8.00
2023-04-06T15:35:29.658Z,8.00
2023-04-06T15:37:57.766Z,8.00
2023-04-06T15:40:25.139Z,8.00
2023-04-06T15:42:51.916Z,8.00
2023-04-06T15:45:18.646Z,8.00
2023-04-06T15:47:45.774Z,8.00
2023-04-06T15:50:14.470Z,8.00
2023-04-06T15:52:41.182Z,8.00
2023-04-06T15:55:08.670Z,8.00
2023-04-06T15:57:35.500Z,8.00
2023-04-06T16:00:02.366Z,8.00
2023-04-06T16:02:29.401Z,8.00
2023-04-06T16:04:57.601Z,8.00
2023-04-06T16:07:24.453Z,8.00
2023-04-06T16:09:52.140Z,8.00
2023-04-06T16:12:19.246Z,7.90
2023-04-06T16:14:46.294Z,8.00
2023-04-06T16:17:13.459Z,8.00
2023-04-06T16:19:40.224Z,8.00
2023-04-06T16:22:06.967Z,7.90
2023-04-06T16:24:33.694Z,7.90
2023-04-06T16:27:00.519Z,7.90
2023-04-06T16:29:27.721Z,7.90
2023-04-06T16:31:54.628Z,7.80
2023-04-06T16:34:21.392Z,7.80
2023-04-06T16:36:48.159Z,7.80
2023-04-06T16:39:16.931Z,7.80
2023-04-06T16:41:43.624Z,7.70
2023-04-06T16:44:11.186Z,7.70
2023-04-06T16:46:38.893Z,7.70
2023-04-06T16:49:07.011Z,7.70
2023-04-06T16:51:36.326Z,7.70
2023-04-06T16:54:03.430Z,7.70
2023-04-06T16:56:48.116Z,7.80
2023-04-06T17:00:12.765Z,7.80
2023-04-06T17:07:31.989Z,7.80
2023-04-06T17:15:37.500Z,7.90
2023-04-06T17:21:43.219Z,7.90
2023-04-06T17:24:12.132Z,7.90
2023-04-06T17:26:38.919Z,7.90
2023-04-06T17:29:30.373Z,7.90
2023-04-06T17:31:57.907Z,7.90
2023-04-06T17:34:24.642Z,7.90
2023-04-06T17:36:52.178Z,7.90
2023-04-06T17:39:18.953Z,7.90
2023-04-06T17:41:45.615Z,7.80
2023-04-06T17:44:12.343Z,7.80
2023-04-06T17:46:39.203Z,7.80
2023-04-06T17:49:08.342Z,7.80
2023-04-06T17:51:35.236Z,7.80
2023-04-06T17:54:01.903Z,7.80
2023-04-06T17:56:29.260Z,7.90
2023-04-06T17:58:58.536Z,7.90
2023-04-06T18:01:25.397Z,7.80
2023-04-06T18:04:01.177Z,7.90
2023-04-06T18:06:27.988Z,7.80
2023-04-06T18:08:54.855Z,7.80
2023-04-06T18:11:21.710Z,7.80
2023-04-06T18:13:48.695Z,7.90
2023-04-06T18:16:17.264Z,7.90
2023-04-06T18:18:44.236Z,7.90
2023-04-06T18:21:10.937Z,7.90
2023-04-06T18:23:38.146Z,7.90
2023-04-06T18:26:05.732Z,7.90
2023-04-06T18:28:32.797Z,7.80
2023-04-06T18:30:59.719Z,7.80
2023-04-06T18:33:29.250Z,7.90
2023-04-06T18:35:59.787Z,7.80
2023-04-06T18:38:26.617Z,7.90
2023-04-06T18:40:53.358Z,7.90
2023-04-06T18:43:20.110Z,7.90
2023-04-06T18:45:46.905Z,7.90
2023-04-06T18:48:14.058Z,7.90
2023-04-06T18:50:41.009Z,7.90
2023-04-06T18:53:07.747Z,7.90
2023-04-06T18:55:34.492Z,7.90
2023-04-06T18:58:01.258Z,7.90
2023-04-06T19:00:28.032Z,7.90
2023-04-06T19:02:55.093Z,7.90
2023-04-06T19:05:22.393Z,7.90
2023-04-06T19:07:52.401Z,7.80
2023-04-06T19:10:19.529Z,7.80
2023-04-06T19:12:46.780Z,7.80
2023-04-06T19:15:13.540Z,7.80
2023-04-06T19:17:40.579Z,7.80
2023-04-06T19:20:08.145Z,7.70
2023-04-06T19:22:38.241Z,7.70
2023-04-06T19:25:05.966Z,7.70
2023-04-06T19:27:37.828Z,7.70
2023-04-06T19:30:05.570Z,7.70
2023-04-06T19:32:32.661Z,7.70
2023-04-06T19:35:01.387Z,7.70
2023-04-06T19:37:28.096Z,7.70
2023-04-06T19:39:54.786Z,7.70
2023-04-06T19:42:21.776Z,7.70
2023-04-06T19:44:48.911Z,7.70
2023-04-06T19:47:15.682Z,7.70
2023-04-06T19:49:42.482Z,7.70
2023-04-06T19:52:12.614Z,7.60
2023-04-06T19:54:41.994Z,7.60
2023-04-06T19:57:08.713Z,7.60
2023-04-06T19:59:35.421Z,7.60
2023-04-06T20:02:02.334Z,7.60
2023-04-06T20:04:29.270Z,7.60
2023-04-06T20:06:56.055Z,7.60
2023-04-06T20:09:22.939Z,7.50
2023-04-06T20:11:49.764Z,7.50
2023-04-06T20:14:17.807Z,7.50
2023-04-06T20:16:44.601Z,7.50
2023-04-06T20:19:11.413Z,7.50
2023-04-06T20:21:39.477Z,7.50
2023-04-06T20:24:07.630Z,7.50
2023-04-06T20:26:34.624Z,7.50
2023-04-06T20:29:07.967Z,7.50
2023-04-06T20:31:34.875Z,7.50
2023-04-06T20:34:01.963Z,7.50
2023-04-06T20:36:30.293Z,7.50
2023-04-06T20:38:57.376Z,7.60
2023-04-06T20:41:24.056Z,7.60
2023-04-06T20:43:50.790Z,7.60
2023-04-06T20:46:18.312Z,7.60
2023-04-06T20:48:45.285Z,7.60
2023-04-06T20:51:19.428Z,7.60
2023-04-06T20:53:46.966Z,7.70
2023-04-06T20:56:13.693Z,7.70
2023-04-06T20:58:40.476Z,7.70
2023-04-06T21:01:17.260Z,7.70
2023-04-06T21:03:44.339Z,7.70
2023-04-06T21:06:11.254Z,7.70
2023-04-06T21:08:37.991Z,7.80
2023-04-06T21:11:05.999Z,7.70
2023-04-06T21:13:32.853Z,7.70
2023-04-06T21:15:59.643Z,7.80
2023-04-06T21:18:26.508Z,7.80
2023-04-06T21:20:53.344Z,7.80
2023-04-06T21:23:20.222Z,7.80
2023-04-06T21:25:46.978Z,7.80
2023-04-06T21:28:13.651Z,7.80
2023-04-06T21:30:41.310Z,7.80
2023-04-06T21:33:09.422Z,7.80
2023-04-06T21:35:42.182Z,7.80
2023-04-06T21:38:10.242Z,7.80
2023-04-06T21:40:36.967Z,7.70
2023-04-06T21:43:03.693Z,7.80
2023-04-06T21:45:31.077Z,7.80
2023-04-06T21:47:57.798Z,7.70
2023-04-06T21:50:24.602Z,7.70
2023-04-06T21:52:51.298Z,7.70
2023-04-06T21:55:18.296Z,7.80
2023-04-06T21:57:45.169Z,7.80
2023-04-06T22:00:12.416Z,7.80
2023-04-06T22:02:42.529Z,7.80
2023-04-06T22:05:09.766Z,7.80
2023-04-06T22:07:36.416Z,7.80
2023-04-06T22:10:05.914Z,7.80
2023-04-06T22:12:32.642Z,7.80
2023-04-06T22:14:59.849Z,7.80
2023-04-06T22:17:27.301Z,7.80
2023-04-06T22:19:54.072Z,7.80
2023-04-06T22:22:20.768Z,7.80
2023-04-06T22:24:48.907Z,7.80
2023-04-06T22:27:15.841Z,7.80
2023-04-06T22:29:42.563Z,7.80
2023-04-06T22:32:09.273Z,7.80
2023-04-06T22:34:36.144Z,7.80
2023-04-06T22:37:02.897Z,7.90
2023-04-06T22:39:29.650Z,7.90
2023-04-06T22:41:56.295Z,7.90
2023-04-06T22:44:23.206Z,7.90
2023-04-06T22:46:49.951Z,7.90
2023-04-06T22:49:16.800Z,7.90
2023-04-06T22:51:43.460Z,7.90
2023-04-06T22:54:10.515Z,7.90
2023-04-06T22:56:37.290Z,8.00
2023-04-06T22:59:04.051Z,8.00
2023-04-06T23:01:30.851Z,7.90
2023-04-06T23:03:57.754Z,8.00
2023-04-06T23:06:24.485Z,8.00
2023-04-06T23:08:51.226Z,7.90
2023-04-06T23:11:17.914Z,7.90
2023-04-06T23:13:44.588Z,7.90
2023-04-06T23:16:11.405Z,7.90
2023-04-06T23:18:38.115Z,7.90
2023-04-06T23:21:08.029Z,7.90
2023-04-06T23:23:34.717Z,7.80
2023-04-06T23:26:01.414Z,7.80
2023-04-06T23:28:28.060Z,7.70
2023-04-06T23:30:54.738Z,7.70
2023-04-06T23:33:21.621Z,7.60
2023-04-06T23:35:49.659Z,7.60
2023-04-06T23:38:16.421Z,7.60
2023-04-06T23:40:43.077Z,7.50
2023-04-06T23:43:09.968Z,7.50
2023-04-06T23:45:41.184Z,7.50
2023-04-06T23:48:08.043Z,7.40
2023-04-06T23:50:35.933Z,7.40
2023-04-06T23:53:03.398Z,7.40
2023-04-06T23:55:30.335Z,7.40
2023-04-06T23:57:57.085Z,7.30
